Observations for PISA CIV IT-AFB, Italy (LIRP)

LIRP 200715Z 04008KT CAVOK 11/M01 Q1025 NOSIG   
LIRP 200645Z 06008KT CAVOK 10/M02 Q1025 NOSIG   
LIRP 200615Z 05011KT CAVOK 09/M01 Q1025 NOSIG   
LIRP 200545Z 07008KT CAVOK 09/M01 Q1025 NOSIG   
LIRP 200515Z 06010KT CAVOK 09/M00 Q1024 NOSIG   
LIRP 200445Z 06009KT CAVOK 08/M00 Q1024 NOSIG   
LIRP 200415Z 06009KT CAVOK 08/M00 Q1024 NOSIG   
LIRP 200345Z 06009KT CAVOK 09/M01 Q1024 NOSIG   
LIRP 200315Z 07009KT CAVOK 09/M02 Q1024 NOSIG   
LIRP 200245Z 07010KT CAVOK 09/M01 Q1024 NOSIG   
LIRP 200215Z 07010KT CAVOK 08/M00 Q1024 NOSIG   
LIRP 200145Z 07010KT CAVOK 07/01 Q1024 NOSIG
LIRP 200115Z 06010KT CAVOK 06/M00 Q1024 NOSIG   
LIRP 200045Z VRB03KT CAVOK 05/M01 Q1024 NOSIG   
LIRP 200015Z VRB03KT CAVOK 05/M01 Q1024 NOSIG   
LIRP 192345Z 19002KT CAVOK 05/M00 Q1024 NOSIG   
LIRP 192315Z VRB02KT CAVOK 06/00 Q1023 NOSIG
LIRP 192245Z VRB03KT CAVOK 06/01 Q1023 NOSIG
LIRP 192215Z 32002KT CAVOK 06/00 Q1023 NOSIG
LIRP 192145Z VRB02KT CAVOK 06/00 Q1023 NOSIG
LIRP 192115Z VRB02KT CAVOK 06/00 Q1023 NOSIG
LIRP 192045Z VRB02KT CAVOK 07/00 Q1023 NOSIG
LIRP 192015Z 10004KT CAVOK 07/00 Q1022 NOSIG
LIRP 191945Z 09006KT CAVOK 07/M00 Q1022 NOSIG   
LIRP 191915Z 09006KT CAVOK 08/M00 Q1022 NOSIG   
LIRP 191845Z 09007KT CAVOK 09/M01 Q1022 NOSIG   
LIRP 191815Z 08007KT CAVOK 09/M01 Q1021 NOSIG   
LIRP 191745Z 09009KT CAVOK 10/M01 Q1021 NOSIG   
LIRP 191715Z 09010KT CAVOK 11/M00 Q1021 NOSIG   
LIRP 191645Z 08010KT 9999 SCT070 11/M00 Q1020 NOSIG 
LIRP 191615Z 09013KT 9999 SCT070 12/M00 Q1020 NOSIG 
LIRP 191545Z 09009KT 9999 SCT070 12/M00 Q1019 NOSIG 
LIRP 191515Z 08010KT 9999 SCT070 12/M00 Q1019 NOSIG 
LIRP 191445Z 06009KT 9999 SCT070 12/00 Q1019 NOSIG  
LIRP 191415Z 07009KT 9999 SCT060 12/00 Q1019 NOSIG  
LIRP 191345Z 08013KT 9999 SCT060 12/00 Q1019 TEMPO 09015G25KT   
LIRP 191315Z 10016KT 9999 SCT060 13/01 Q1019 TEMPO 09015G25KT   
LIRP 191245Z 09013KT 9999 SCT060 13/01 Q1019 NOSIG  
LIRP 191215Z 08014KT 9999 FEW060 13/01 Q1019 NOSIG  
LIRP 191145Z 09015KT 9999 FEW060 13/00 Q1019 NOSIG  
LIRP 191115Z 09012KT 9999 FEW060 13/M00 Q1019 NOSIG 
LIRP 191045Z 08007KT CAVOK 12/M00 Q1019 NOSIG   
LIRP 191015Z 08009KT CAVOK 12/00 Q1019 NOSIG
LIRP 190945Z 09009KT CAVOK 12/00 Q1019 NOSIG
LIRP 190915Z 09010KT CAVOK 12/00 Q1019 NOSIG
LIRP 190845Z 10010KT CAVOK 11/01 Q1019 NOSIG
LIRP 190815Z 09007KT CAVOK 10/01 Q1018 NOSIG
LIRP 190745Z 08007KT CAVOK 08/01 Q1018 NOSIG
LIRP 190715Z 10006KT CAVOK 08/02 Q1018 NOSIG
LIRP 190645Z 10008KT 9999 BKN080 08/02 Q1018 NOSIG